sensor_id;sensor_type;location;lat;lon;timestamp;temperature;humidity
78289;DHT22;67539;48.752;12.922;2023-08-21T00:00:07;20.90;99.90
78289;DHT22;67539;48.752;12.922;2023-08-21T00:02:37;20.90;99.90
78289;DHT22;67539;48.752;12.922;2023-08-21T00:05:07;20.90;99.90
78289;DHT22;67539;48.752;12.922;2023-08-21T00:07:35;20.90;99.90
78289;DHT22;67539;48.752;12.922;2023-08-21T00:10:04;20.90;99.90
78289;DHT22;67539;48.752;12.922;2023-08-21T00:12:32;20.80;99.90
78289;DHT22;67539;48.752;12.922;2023-08-21T00:15:00;20.90;99.90
78289;DHT22;67539;48.752;12.922;2023-08-21T00:17:27;20.90;99.90
78289;DHT22;67539;48.752;12.922;2023-08-21T00:19:55;20.90;99.90
78289;DHT22;67539;48.752;12.922;2023-08-21T00:22:25;20.90;99.90
78289;DHT22;67539;48.752;12.922;2023-08-21T00:24:53;20.90;99.90
78289;DHT22;67539;48.752;12.922;2023-08-21T00:27:21;20.80;99.90
78289;DHT22;67539;48.752;12.922;2023-08-21T00:29:49;20.80;99.90
78289;DHT22;67539;48.752;12.922;2023-08-21T00:32:17;20.80;99.90
78289;DHT22;67539;48.752;12.922;2023-08-21T00:34:44;20.80;99.90
78289;DHT22;67539;48.752;12.922;2023-08-21T00:37:12;20.80;99.90
78289;DHT22;67539;48.752;12.922;2023-08-21T00:39:42;20.80;99.90
78289;DHT22;67539;48.752;12.922;2023-08-21T00:42:10;20.80;99.90
78289;DHT22;67539;48.752;12.922;2023-08-21T00:44:38;20.80;99.90
78289;DHT22;67539;48.752;12.922;2023-08-21T00:47:06;20.70;99.90
78289;DHT22;67539;48.752;12.922;2023-08-21T00:49:34;20.70;99.90
78289;DHT22;67539;48.752;12.922;2023-08-21T00:52:03;20.60;99.90
78289;DHT22;67539;48.752;12.922;2023-08-21T00:54:31;20.60;99.90
78289;DHT22;67539;48.752;12.922;2023-08-21T00:57:00;20.60;99.90
78289;DHT22;67539;48.752;12.922;2023-08-21T00:59:29;20.70;99.90
78289;DHT22;67539;48.752;12.922;2023-08-21T01:01:57;20.70;99.90
78289;DHT22;67539;48.752;12.922;2023-08-21T01:04:25;20.70;99.90
78289;DHT22;67539;48.752;12.922;2023-08-21T01:06:53;20.60;99.90
78289;DHT22;67539;48.752;12.922;2023-08-21T01:09:23;20.60;99.90
78289;DHT22;67539;48.752;12.922;2023-08-21T01:11:54;20.50;99.90
78289;DHT22;67539;48.752;12.922;2023-08-21T01:14:25;20.40;99.90
78289;DHT22;67539;48.752;12.922;2023-08-21T01:16:58;20.40;99.90
78289;DHT22;67539;48.752;12.922;2023-08-21T01:19:37;20.30;99.90
78289;DHT22;67539;48.752;12.922;2023-08-21T01:22:05;20.30;99.90
78289;DHT22;67539;48.752;12.922;2023-08-21T01:24:34;20.20;99.90
78289;DHT22;67539;48.752;12.922;2023-08-21T01:27:03;20.20;99.90
78289;DHT22;67539;48.752;12.922;2023-08-21T01:29:30;20.20;99.90
78289;DHT22;67539;48.752;12.922;2023-08-21T01:32:01;20.20;99.90
78289;DHT22;67539;48.752;12.922;2023-08-21T01:34:30;20.20;99.90
78289;DHT22;67539;48.752;12.922;2023-08-21T01:37:00;20.20;99.90
78289;DHT22;67539;48.752;12.922;2023-08-21T01:39:29;20.20;99.90
78289;DHT22;67539;48.752;12.922;2023-08-21T01:41:58;20.10;99.90
78289;DHT22;67539;48.752;12.922;2023-08-21T01:44:30;20.10;99.90
78289;DHT22;67539;48.752;12.922;2023-08-21T01:47:01;20.10;99.90
78289;DHT22;67539;48.752;12.922;2023-08-21T01:49:29;20.00;99.90
78289;DHT22;67539;48.752;12.922;2023-08-21T01:51:57;20.00;99.90
78289;DHT22;67539;48.752;12.922;2023-08-21T01:54:25;20.10;99.90
78289;DHT22;67539;48.752;12.922;2023-08-21T01:56:53;20.10;99.90
78289;DHT22;67539;48.752;12.922;2023-08-21T01:59:22;20.10;99.90
78289;DHT22;67539;48.752;12.922;2023-08-21T02:01:50;20.20;99.90
78289;DHT22;67539;48.752;12.922;2023-08-21T02:04:19;20.20;99.90
78289;DHT22;67539;48.752;12.922;2023-08-21T02:06:46;20.20;99.90
78289;DHT22;67539;48.752;12.922;2023-08-21T02:09:14;20.20;99.90
78289;DHT22;67539;48.752;12.922;2023-08-21T02:11:42;20.20;99.90
78289;DHT22;67539;48.752;12.922;2023-08-21T02:14:10;20.20;99.90
78289;DHT22;67539;48.752;12.922;2023-08-21T02:16:40;20.20;99.90
78289;DHT22;67539;48.752;12.922;2023-08-21T02:19:08;20.20;99.90
78289;DHT22;67539;48.752;12.922;2023-08-21T02:21:36;20.20;99.90
78289;DHT22;67539;48.752;12.922;2023-08-21T02:24:04;20.10;99.90
78289;DHT22;67539;48.752;12.922;2023-08-21T02:26:32;20.00;99.90
78289;DHT22;67539;48.752;12.922;2023-08-21T02:29:00;19.90;99.90
78289;DHT22;67539;48.752;12.922;2023-08-21T02:31:28;19.90;99.90
78289;DHT22;67539;48.752;12.922;2023-08-21T02:33:57;19.90;99.90
78289;DHT22;67539;48.752;12.922;2023-08-21T02:36:25;19.80;99.90
78289;DHT22;67539;48.752;12.922;2023-08-21T02:38:55;19.80;99.90
78289;DHT22;67539;48.752;12.922;2023-08-21T02:41:23;19.80;99.90
78289;DHT22;67539;48.752;12.922;2023-08-21T02:43:51;19.80;99.90
78289;DHT22;67539;48.752;12.922;2023-08-21T02:46:19;19.90;99.90
78289;DHT22;67539;48.752;12.922;2023-08-21T02:48:47;19.90;99.90
78289;DHT22;67539;48.752;12.922;2023-08-21T02:51:18;20.00;99.90
78289;DHT22;67539;48.752;12.922;2023-08-21T02:53:45;20.00;99.90
78289;DHT22;67539;48.752;12.922;2023-08-21T02:56:13;20.00;99.90
78289;DHT22;67539;48.752;12.922;2023-08-21T02:58:41;19.90;99.90
78289;DHT22;67539;48.752;12.922;2023-08-21T03:01:10;19.90;99.90
78289;DHT22;67539;48.752;12.922;2023-08-21T03:03:38;19.90;99.90
78289;DHT22;67539;48.752;12.922;2023-08-21T03:06:06;19.80;99.90
78289;DHT22;67539;48.752;12.922;2023-08-21T03:08:35;19.80;99.90
78289;DHT22;67539;48.752;12.922;2023-08-21T03:11:03;19.70;99.90
78289;DHT22;67539;48.752;12.922;2023-08-21T03:13:32;19.70;99.90
78289;DHT22;67539;48.752;12.922;2023-08-21T03:16:00;19.60;99.90
78289;DHT22;67539;48.752;12.922;2023-08-21T03:18:30;19.60;99.90
78289;DHT22;67539;48.752;12.922;2023-08-21T03:20:58;19.70;99.90
78289;DHT22;67539;48.752;12.922;2023-08-21T03:23:26;19.70;99.90
78289;DHT22;67539;48.752;12.922;2023-08-21T03:25:56;19.70;99.90
78289;DHT22;67539;48.752;12.922;2023-08-21T03:28:24;19.80;99.90
78289;DHT22;67539;48.752;12.922;2023-08-21T03:30:52;19.80;99.90
78289;DHT22;67539;48.752;12.922;2023-08-21T03:33:20;19.80;99.90
78289;DHT22;67539;48.752;12.922;2023-08-21T03:35:52;19.80;99.90
78289;DHT22;67539;48.752;12.922;2023-08-21T03:38:22;19.70;99.90
78289;DHT22;67539;48.752;12.922;2023-08-21T03:40:50;19.70;99.90
78289;DHT22;67539;48.752;12.922;2023-08-21T03:43:20;19.70;99.90
78289;DHT22;67539;48.752;12.922;2023-08-21T03:45:48;19.70;99.90
78289;DHT22;67539;48.752;12.922;2023-08-21T03:48:17;19.70;99.90
78289;DHT22;67539;48.752;12.922;2023-08-21T03:50:45;19.70;99.90
78289;DHT22;67539;48.752;12.922;2023-08-21T03:53:13;19.70;99.90
78289;DHT22;67539;48.752;12.922;2023-08-21T03:55:41;19.70;99.90
78289;DHT22;67539;48.752;12.922;2023-08-21T03:58:09;19.60;99.90
78289;DHT22;67539;48.752;12.922;2023-08-21T04:00:38;19.60;99.90
78289;DHT22;67539;48.752;12.922;2023-08-21T04:03:06;19.60;99.90
78289;DHT22;67539;48.752;12.922;2023-08-21T04:05:34;19.50;99.90
78289;DHT22;67539;48.752;12.922;2023-08-21T04:08:03;19.40;99.90
78289;DHT22;67539;48.752;12.922;2023-08-21T04:10:31;19.30;99.90
78289;DHT22;67539;48.752;12.922;2023-08-21T04:12:58;19.30;99.90
78289;DHT22;67539;48.752;12.922;2023-08-21T04:15:30;19.30;99.90
78289;DHT22;67539;48.752;12.922;2023-08-21T04:17:59;19.20;99.90
78289;DHT22;67539;48.752;12.922;2023-08-21T04:20:27;19.20;99.90
78289;DHT22;67539;48.752;12.922;2023-08-21T04:22:55;19.10;99.90
78289;DHT22;67539;48.752;12.922;2023-08-21T04:25:23;19.10;99.90
78289;DHT22;67539;48.752;12.922;2023-08-21T04:27:51;19.10;99.90
78289;DHT22;67539;48.752;12.922;2023-08-21T04:30:20;19.10;99.90
78289;DHT22;67539;48.752;12.922;2023-08-21T04:32:48;19.20;99.90
78289;DHT22;67539;48.752;12.922;2023-08-21T04:35:17;19.20;99.90
78289;DHT22;67539;48.752;12.922;2023-08-21T04:37:46;19.10;99.90
78289;DHT22;67539;48.752;12.922;2023-08-21T04:40:17;19.10;99.90
78289;DHT22;67539;48.752;12.922;2023-08-21T04:42:47;19.10;99.90
78289;DHT22;67539;48.752;12.922;2023-08-21T04:45:16;19.10;99.90
78289;DHT22;67539;48.752;12.922;2023-08-21T04:47:44;19.00;99.90
78289;DHT22;67539;48.752;12.922;2023-08-21T04:50:12;19.00;99.90
78289;DHT22;67539;48.752;12.922;2023-08-21T04:52:43;19.00;99.90
78289;DHT22;67539;48.752;12.922;2023-08-21T04:55:11;19.10;99.90
78289;DHT22;67539;48.752;12.922;2023-08-21T04:57:40;19.10;99.90
78289;DHT22;67539;48.752;12.922;2023-08-21T05:00:10;19.20;99.90
78289;DHT22;67539;48.752;12.922;2023-08-21T05:02:41;19.20;99.90
78289;DHT22;67539;48.752;12.922;2023-08-21T05:05:09;19.30;99.90
78289;DHT22;67539;48.752;12.922;2023-08-21T05:07:37;19.30;99.90
78289;DHT22;67539;48.752;12.922;2023-08-21T05:10:07;19.30;99.90
78289;DHT22;67539;48.752;12.922;2023-08-21T05:12:37;19.40;99.90
78289;DHT22;67539;48.752;12.922;2023-08-21T05:15:06;19.40;99.90
78289;DHT22;67539;48.752;12.922;2023-08-21T05:17:36;19.50;99.90
78289;DHT22;67539;48.752;12.922;2023-08-21T05:20:05;19.60;99.90
78289;DHT22;67539;48.752;12.922;2023-08-21T05:22:34;19.70;99.90
78289;DHT22;67539;48.752;12.922;2023-08-21T05:25:02;19.80;99.90
78289;DHT22;67539;48.752;12.922;2023-08-21T05:27:32;19.90;99.90
78289;DHT22;67539;48.752;12.922;2023-08-21T05:30:00;19.90;99.90
78289;DHT22;67539;48.752;12.922;2023-08-21T05:32:28;20.00;99.90
78289;DHT22;67539;48.752;12.922;2023-08-21T05:34:56;20.00;99.90
78289;DHT22;67539;48.752;12.922;2023-08-21T05:37:24;20.10;99.90
78289;DHT22;67539;48.752;12.922;2023-08-21T05:39:55;20.10;99.90
78289;DHT22;67539;48.752;12.922;2023-08-21T05:42:24;20.20;99.90
78289;DHT22;67539;48.752;12.922;2023-08-21T05:44:54;20.30;99.90
78289;DHT22;67539;48.752;12.922;2023-08-21T05:47:22;20.40;99.90
78289;DHT22;67539;48.752;12.922;2023-08-21T05:49:51;20.40;99.90
78289;DHT22;67539;48.752;12.922;2023-08-21T05:52:21;20.50;99.90
78289;DHT22;67539;48.752;12.922;2023-08-21T05:54:50;20.60;99.90
78289;DHT22;67539;48.752;12.922;2023-08-21T05:57:18;20.70;99.90
78289;DHT22;67539;48.752;12.922;2023-08-21T05:59:46;20.80;99.90
78289;DHT22;67539;48.752;12.922;2023-08-21T06:02:15;20.80;99.90
78289;DHT22;67539;48.752;12.922;2023-08-21T06:04:45;20.90;99.90
78289;DHT22;67539;48.752;12.922;2023-08-21T06:07:13;21.00;99.90
78289;DHT22;67539;48.752;12.922;2023-08-21T06:09:41;21.10;99.90
78289;DHT22;67539;48.752;12.922;2023-08-21T06:12:09;21.20;99.90
78289;DHT22;67539;48.752;12.922;2023-08-21T06:14:39;21.30;99.90
78289;DHT22;67539;48.752;12.922;2023-08-21T06:17:08;21.30;99.90
78289;DHT22;67539;48.752;12.922;2023-08-21T06:19:38;21.50;99.90
78289;DHT22;67539;48.752;12.922;2023-08-21T06:22:06;21.50;99.90
78289;DHT22;67539;48.752;12.922;2023-08-21T06:24:35;21.70;99.90
78289;DHT22;67539;48.752;12.922;2023-08-21T06:27:05;21.80;99.90
78289;DHT22;67539;48.752;12.922;2023-08-21T06:29:35;21.90;99.90
78289;DHT22;67539;48.752;12.922;2023-08-21T06:32:04;22.00;99.90
78289;DHT22;67539;48.752;12.922;2023-08-21T06:34:33;22.10;99.90
78289;DHT22;67539;48.752;12.922;2023-08-21T06:37:03;22.20;99.90
78289;DHT22;67539;48.752;12.922;2023-08-21T06:39:31;22.30;99.90
78289;DHT22;67539;48.752;12.922;2023-08-21T06:42:00;22.40;99.90
78289;DHT22;67539;48.752;12.922;2023-08-21T06:44:36;22.50;99.90
78289;DHT22;67539;48.752;12.922;2023-08-21T06:47:05;22.60;99.90
78289;DHT22;67539;48.752;12.922;2023-08-21T06:49:33;22.80;99.90
78289;DHT22;67539;48.752;12.922;2023-08-21T06:52:02;22.90;99.90
78289;DHT22;67539;48.752;12.922;2023-08-21T06:54:30;23.00;99.90
78289;DHT22;67539;48.752;12.922;2023-08-21T06:56:58;23.00;99.90
78289;DHT22;67539;48.752;12.922;2023-08-21T06:59:26;23.10;99.90
78289;DHT22;67539;48.752;12.922;2023-08-21T07:01:54;23.20;99.90
78289;DHT22;67539;48.752;12.922;2023-08-21T07:04:22;23.40;99.90
78289;DHT22;67539;48.752;12.922;2023-08-21T07:06:50;23.40;99.90
78289;DHT22;67539;48.752;12.922;2023-08-21T07:09:20;23.60;99.90
78289;DHT22;67539;48.752;12.922;2023-08-21T07:11:48;23.60;99.90
78289;DHT22;67539;48.752;12.922;2023-08-21T07:14:16;23.70;99.90
78289;DHT22;67539;48.752;12.922;2023-08-21T07:16:45;23.80;99.90
78289;DHT22;67539;48.752;12.922;2023-08-21T07:19:13;23.90;99.90
78289;DHT22;67539;48.752;12.922;2023-08-21T07:21:40;24.00;99.90
78289;DHT22;67539;48.752;12.922;2023-08-21T07:24:08;24.10;99.90
78289;DHT22;67539;48.752;12.922;2023-08-21T07:26:38;24.10;99.90
78289;DHT22;67539;48.752;12.922;2023-08-21T07:41:39;24.20;99.90
78289;DHT22;67539;48.752;12.922;2023-08-21T07:44:07;24.80;99.90
78289;DHT22;67539;48.752;12.922;2023-08-21T07:46:35;24.80;99.90
78289;DHT22;67539;48.752;12.922;2023-08-21T07:49:03;24.90;99.90
78289;DHT22;67539;48.752;12.922;2023-08-21T07:51:31;25.00;99.90
78289;DHT22;67539;48.752;12.922;2023-08-21T07:53:59;25.00;99.90
78289;DHT22;67539;48.752;12.922;2023-08-21T07:56:27;25.00;99.90
78289;DHT22;67539;48.752;12.922;2023-08-21T07:58:57;25.20;99.90
78289;DHT22;67539;48.752;12.922;2023-08-21T08:01:25;25.20;99.90
78289;DHT22;67539;48.752;12.922;2023-08-21T08:03:53;25.30;99.90
78289;DHT22;67539;48.752;12.922;2023-08-21T08:06:22;25.30;99.90
78289;DHT22;67539;48.752;12.922;2023-08-21T08:08:51;25.50;99.90
78289;DHT22;67539;48.752;12.922;2023-08-21T08:11:19;25.60;99.90
78289;DHT22;67539;48.752;12.922;2023-08-21T08:13:47;25.60;99.90
78289;DHT22;67539;48.752;12.922;2023-08-21T08:16:17;25.70;99.90
78289;DHT22;67539;48.752;12.922;2023-08-21T08:18:45;25.80;99.90
78289;DHT22;67539;48.752;12.922;2023-08-21T08:21:13;25.90;99.90
78289;DHT22;67539;48.752;12.922;2023-08-21T08:23:42;26.00;99.90
78289;DHT22;67539;48.752;12.922;2023-08-21T08:26:10;26.10;99.90
78289;DHT22;67539;48.752;12.922;2023-08-21T08:28:39;26.10;99.90
78289;DHT22;67539;48.752;12.922;2023-08-21T08:31:07;26.20;99.90
78289;DHT22;67539;48.752;12.922;2023-08-21T08:33:43;26.40;99.90
78289;DHT22;67539;48.752;12.922;2023-08-21T08:36:11;26.50;99.90
78289;DHT22;67539;48.752;12.922;2023-08-21T08:38:40;26.50;99.90
78289;DHT22;67539;48.752;12.922;2023-08-21T08:41:12;26.60;99.90
78289;DHT22;67539;48.752;12.922;2023-08-21T08:43:43;26.70;99.90
78289;DHT22;67539;48.752;12.922;2023-08-21T08:46:11;26.90;99.90
78289;DHT22;67539;48.752;12.922;2023-08-21T08:48:40;27.00;99.90
78289;DHT22;67539;48.752;12.922;2023-08-21T08:51:10;27.10;99.90
78289;DHT22;67539;48.752;12.922;2023-08-21T08:53:38;27.20;99.90
78289;DHT22;67539;48.752;12.922;2023-08-21T08:56:07;27.30;99.90
78289;DHT22;67539;48.752;12.922;2023-08-21T08:58:36;27.40;99.90
78289;DHT22;67539;48.752;12.922;2023-08-21T09:01:06;27.50;99.90
78289;DHT22;67539;48.752;12.922;2023-08-21T09:03:34;27.60;99.90
78289;DHT22;67539;48.752;12.922;2023-08-21T09:06:03;27.70;99.90
78289;DHT22;67539;48.752;12.922;2023-08-21T09:08:32;27.80;99.90
78289;DHT22;67539;48.752;12.922;2023-08-21T09:11:01;27.90;99.90
78289;DHT22;67539;48.752;12.922;2023-08-21T09:13:31;28.00;99.90
78289;DHT22;67539;48.752;12.922;2023-08-21T09:15:59;28.00;99.90
78289;DHT22;67539;48.752;12.922;2023-08-21T09:18:28;28.10;99.90
78289;DHT22;67539;48.752;12.922;2023-08-21T09:20:56;28.10;99.90
78289;DHT22;67539;48.752;12.922;2023-08-21T09:23:24;28.20;99.90
78289;DHT22;67539;48.752;12.922;2023-08-21T09:25:54;28.30;99.90
78289;DHT22;67539;48.752;12.922;2023-08-21T09:28:22;28.40;99.50
78289;DHT22;67539;48.752;12.922;2023-08-21T09:30:52;28.50;99.90
78289;DHT22;67539;48.752;12.922;2023-08-21T09:33:23;28.60;99.90
78289;DHT22;67539;48.752;12.922;2023-08-21T09:35:52;28.70;99.90
78289;DHT22;67539;48.752;12.922;2023-08-21T09:38:21;28.80;99.90
78289;DHT22;67539;48.752;12.922;2023-08-21T09:40:51;28.90;99.90
78289;DHT22;67539;48.752;12.922;2023-08-21T09:43:22;29.00;98.90
78289;DHT22;67539;48.752;12.922;2023-08-21T09:45:52;29.10;99.00
78289;DHT22;67539;48.752;12.922;2023-08-21T09:48:22;29.20;99.20
78289;DHT22;67539;48.752;12.922;2023-08-21T09:50:51;29.20;98.80
78289;DHT22;67539;48.752;12.922;2023-08-21T09:53:20;29.40;98.60
78289;DHT22;67539;48.752;12.922;2023-08-21T09:55:50;29.40;98.50
78289;DHT22;67539;48.752;12.922;2023-08-21T09:58:22;29.50;98.10
78289;DHT22;67539;48.752;12.922;2023-08-21T10:00:52;29.60;98.00
78289;DHT22;67539;48.752;12.922;2023-08-21T10:03:25;29.70;97.50
78289;DHT22;67539;48.752;12.922;2023-08-21T10:05:56;29.70;96.90
78289;DHT22;67539;48.752;12.922;2023-08-21T10:08:26;29.80;96.70
78289;DHT22;67539;48.752;12.922;2023-08-21T10:10:56;29.90;97.10
78289;DHT22;67539;48.752;12.922;2023-08-21T10:13:32;30.00;96.20
78289;DHT22;67539;48.752;12.922;2023-08-21T10:16:01;30.10;96.00
78289;DHT22;67539;48.752;12.922;2023-08-21T10:18:31;30.20;96.60
78289;DHT22;67539;48.752;12.922;2023-08-21T10:21:11;30.20;96.90
78289;DHT22;67539;48.752;12.922;2023-08-21T10:23:40;30.30;96.00
78289;DHT22;67539;48.752;12.922;2023-08-21T10:26:11;30.40;95.60
78289;DHT22;67539;48.752;12.922;2023-08-21T10:29:00;30.50;95.40
78289;DHT22;67539;48.752;12.922;2023-08-21T10:31:32;30.60;94.80
78289;DHT22;67539;48.752;12.922;2023-08-21T10:34:02;30.60;95.80
78289;DHT22;67539;48.752;12.922;2023-08-21T10:39:23;30.80;94.50
78289;DHT22;67539;48.752;12.922;2023-08-21T10:41:54;30.90;94.20
78289;DHT22;67539;48.752;12.922;2023-08-21T10:44:38;30.90;94.60
78289;DHT22;67539;48.752;12.922;2023-08-21T10:47:18;31.00;94.70
78289;DHT22;67539;48.752;12.922;2023-08-21T10:49:47;31.10;94.70
78289;DHT22;67539;48.752;12.922;2023-08-21T10:52:20;31.10;94.50
78289;DHT22;67539;48.752;12.922;2023-08-21T10:54:50;31.20;94.20
78289;DHT22;67539;48.752;12.922;2023-08-21T10:57:19;31.20;93.00
78289;DHT22;67539;48.752;12.922;2023-08-21T10:59:52;31.30;94.00
78289;DHT22;67539;48.752;12.922;2023-08-21T11:02:21;31.30;93.70
78289;DHT22;67539;48.752;12.922;2023-08-21T11:04:50;31.40;92.80
78289;DHT22;67539;48.752;12.922;2023-08-21T11:07:18;31.40;93.10
78289;DHT22;67539;48.752;12.922;2023-08-21T11:09:48;31.50;93.70
78289;DHT22;67539;48.752;12.922;2023-08-21T11:12:17;31.60;92.60
78289;DHT22;67539;48.752;12.922;2023-08-21T11:14:46;31.60;91.60
78289;DHT22;67539;48.752;12.922;2023-08-21T11:17:16;31.70;91.80
78289;DHT22;67539;48.752;12.922;2023-08-21T11:19:45;31.70;92.50
78289;DHT22;67539;48.752;12.922;2023-08-21T11:22:16;31.80;92.10
78289;DHT22;67539;48.752;12.922;2023-08-21T11:24:45;31.90;91.90
78289;DHT22;67539;48.752;12.922;2023-08-21T11:27:15;31.90;91.80
78289;DHT22;67539;48.752;12.922;2023-08-21T11:29:44;32.00;90.90
78289;DHT22;67539;48.752;12.922;2023-08-21T11:32:13;32.10;91.40
78289;DHT22;67539;48.752;12.922;2023-08-21T11:34:50;32.10;87.00
78289;DHT22;67539;48.752;12.922;2023-08-21T11:37:19;32.10;86.40
78289;DHT22;67539;48.752;12.922;2023-08-21T11:39:49;32.00;84.80
78289;DHT22;67539;48.752;12.922;2023-08-21T11:42:20;32.00;86.50
78289;DHT22;67539;48.752;12.922;2023-08-21T11:44:50;32.10;87.60
78289;DHT22;67539;48.752;12.922;2023-08-21T11:47:21;32.20;87.50
78289;DHT22;67539;48.752;12.922;2023-08-21T11:49:50;32.30;86.50
78289;DHT22;67539;48.752;12.922;2023-08-21T11:52:21;32.30;84.60
78289;DHT22;67539;48.752;12.922;2023-08-21T11:54:53;32.30;84.40
78289;DHT22;67539;48.752;12.922;2023-08-21T11:57:22;32.40;87.80
78289;DHT22;67539;48.752;12.922;2023-08-21T11:59:50;32.40;86.80
78289;DHT22;67539;48.752;12.922;2023-08-21T12:02:22;32.50;87.90
78289;DHT22;67539;48.752;12.922;2023-08-21T12:05:01;32.60;88.00
78289;DHT22;67539;48.752;12.922;2023-08-21T12:07:31;32.70;88.10
78289;DHT22;67539;48.752;12.922;2023-08-21T12:10:00;32.80;84.40
78289;DHT22;67539;48.752;12.922;2023-08-21T12:12:28;32.80;81.20
78289;DHT22;67539;48.752;12.922;2023-08-21T12:14:56;32.80;82.10
78289;DHT22;67539;48.752;12.922;2023-08-21T12:17:24;32.90;81.60
78289;DHT22;67539;48.752;12.922;2023-08-21T12:19:52;32.90;84.80
78289;DHT22;67539;48.752;12.922;2023-08-21T12:22:22;32.90;82.40
78289;DHT22;67539;48.752;12.922;2023-08-21T12:24:50;33.00;79.40
78289;DHT22;67539;48.752;12.922;2023-08-21T12:27:19;33.00;76.30
78289;DHT22;67539;48.752;12.922;2023-08-21T12:29:48;32.90;77.70
78289;DHT22;67539;48.752;12.922;2023-08-21T12:32:17;32.90;77.10
78289;DHT22;67539;48.752;12.922;2023-08-21T12:34:45;32.90;78.70
78289;DHT22;67539;48.752;12.922;2023-08-21T12:37:13;33.10;81.60
78289;DHT22;67539;48.752;12.922;2023-08-21T12:39:45;33.20;81.90
78289;DHT22;67539;48.752;12.922;2023-08-21T12:42:13;33.20;81.10
78289;DHT22;67539;48.752;12.922;2023-08-21T12:44:41;33.30;81.10
78289;DHT22;67539;48.752;12.922;2023-08-21T12:47:09;33.40;82.30
78289;DHT22;67539;48.752;12.922;2023-08-21T12:49:37;33.50;79.60
78289;DHT22;67539;48.752;12.922;2023-08-21T12:52:05;33.60;79.40
78289;DHT22;67539;48.752;12.922;2023-08-21T12:54:36;33.70;70.00
78289;DHT22;67539;48.752;12.922;2023-08-21T12:57:06;33.70;68.80
78289;DHT22;67539;48.752;12.922;2023-08-21T12:59:34;33.60;68.30
78289;DHT22;67539;48.752;12.922;2023-08-21T13:02:03;33.60;70.50
78289;DHT22;67539;48.752;12.922;2023-08-21T13:04:33;33.70;74.30
78289;DHT22;67539;48.752;12.922;2023-08-21T13:07:01;33.80;74.50
78289;DHT22;67539;48.752;12.922;2023-08-21T13:09:30;34.00;75.00
78289;DHT22;67539;48.752;12.922;2023-08-21T13:11:59;34.00;74.60
78289;DHT22;67539;48.752;12.922;2023-08-21T13:14:28;34.10;74.10
78289;DHT22;67539;48.752;12.922;2023-08-21T13:16:58;34.20;72.70
78289;DHT22;67539;48.752;12.922;2023-08-21T13:19:26;34.30;73.00
78289;DHT22;67539;48.752;12.922;2023-08-21T13:21:54;34.40;72.40
78289;DHT22;67539;48.752;12.922;2023-08-21T13:24:22;34.50;74.20
78289;DHT22;67539;48.752;12.922;2023-08-21T13:26:51;34.60;70.10
78289;DHT22;67539;48.752;12.922;2023-08-21T13:29:19;34.60;65.90
78289;DHT22;67539;48.752;12.922;2023-08-21T13:31:48;34.60;69.50
78289;DHT22;67539;48.752;12.922;2023-08-21T13:34:16;34.80;68.80
78289;DHT22;67539;48.752;12.922;2023-08-21T13:36:45;34.90;65.90
78289;DHT22;67539;48.752;12.922;2023-08-21T13:39:13;35.00;66.50
78289;DHT22;67539;48.752;12.922;2023-08-21T13:41:42;35.50;68.50
78289;DHT22;67539;48.752;12.922;2023-08-21T13:44:10;36.20;68.00
78289;DHT22;67539;48.752;12.922;2023-08-21T13:46:38;37.10;64.60
78289;DHT22;67539;48.752;12.922;2023-08-21T13:49:08;38.00;63.80
78289;DHT22;67539;48.752;12.922;2023-08-21T13:51:36;38.80;62.20
78289;DHT22;67539;48.752;12.922;2023-08-21T13:54:05;39.60;63.00
78289;DHT22;67539;48.752;12.922;2023-08-21T13:56:33;40.30;58.10
78289;DHT22;67539;48.752;12.922;2023-08-21T13:59:01;40.80;59.00
78289;DHT22;67539;48.752;12.922;2023-08-21T14:01:29;41.30;57.70
78289;DHT22;67539;48.752;12.922;2023-08-21T14:03:57;41.80;51.20
78289;DHT22;67539;48.752;12.922;2023-08-21T14:06:27;42.40;49.60
78289;DHT22;67539;48.752;12.922;2023-08-21T14:08:56;42.50;49.00
78289;DHT22;67539;48.752;12.922;2023-08-21T14:11:24;42.20;48.50
78289;DHT22;67539;48.752;12.922;2023-08-21T14:13:52;42.70;47.80
78289;DHT22;67539;48.752;12.922;2023-08-21T14:16:21;43.20;49.30
78289;DHT22;67539;48.752;12.922;2023-08-21T14:18:49;43.70;46.90
78289;DHT22;67539;48.752;12.922;2023-08-21T14:21:17;44.20;46.70
78289;DHT22;67539;48.752;12.922;2023-08-21T14:23:47;44.50;47.30
78289;DHT22;67539;48.752;12.922;2023-08-21T14:26:15;44.20;46.40
78289;DHT22;67539;48.752;12.922;2023-08-21T14:28:43;44.10;47.10
78289;DHT22;67539;48.752;12.922;2023-08-21T14:31:17;44.10;45.50
78289;DHT22;67539;48.752;12.922;2023-08-21T14:33:45;44.10;45.40
78289;DHT22;67539;48.752;12.922;2023-08-21T14:36:13;44.10;43.20
78289;DHT22;67539;48.752;12.922;2023-08-21T14:38:43;44.20;42.50
78289;DHT22;67539;48.752;12.922;2023-08-21T14:41:13;44.40;42.00
78289;DHT22;67539;48.752;12.922;2023-08-21T14:43:41;44.00;41.80
78289;DHT22;67539;48.752;12.922;2023-08-21T14:46:09;43.60;42.00
78289;DHT22;67539;48.752;12.922;2023-08-21T14:48:39;43.50;41.60
78289;DHT22;67539;48.752;12.922;2023-08-21T14:51:08;43.30;42.40
78289;DHT22;67539;48.752;12.922;2023-08-21T14:53:36;43.50;41.40
78289;DHT22;67539;48.752;12.922;2023-08-21T14:56:04;43.30;41.90
78289;DHT22;67539;48.752;12.922;2023-08-21T14:58:34;43.10;42.10
78289;DHT22;67539;48.752;12.922;2023-08-21T15:01:02;43.20;41.60
78289;DHT22;67539;48.752;12.922;2023-08-21T15:03:32;43.70;42.00
78289;DHT22;67539;48.752;12.922;2023-08-21T15:06:00;43.90;40.70
78289;DHT22;67539;48.752;12.922;2023-08-21T15:08:28;44.00;42.40
78289;DHT22;67539;48.752;12.922;2023-08-21T15:10:56;44.00;41.20
78289;DHT22;67539;48.752;12.922;2023-08-21T15:13:24;43.90;39.90
78289;DHT22;67539;48.752;12.922;2023-08-21T15:15:53;43.50;40.00
78289;DHT22;67539;48.752;12.922;2023-08-21T15:18:22;43.30;40.70
78289;DHT22;67539;48.752;12.922;2023-08-21T15:20:50;43.30;40.30
78289;DHT22;67539;48.752;12.922;2023-08-21T15:23:18;43.60;40.80
78289;DHT22;67539;48.752;12.922;2023-08-21T15:25:47;44.30;40.70
78289;DHT22;67539;48.752;12.922;2023-08-21T15:28:15;44.40;40.70
78289;DHT22;67539;48.752;12.922;2023-08-21T15:30:43;44.20;39.90
78289;DHT22;67539;48.752;12.922;2023-08-21T15:33:13;44.10;41.30
78289;DHT22;67539;48.752;12.922;2023-08-21T15:35:41;44.00;41.60
78289;DHT22;67539;48.752;12.922;2023-08-21T15:38:09;44.00;42.50
78289;DHT22;67539;48.752;12.922;2023-08-21T15:40:37;44.20;40.40